createdAt,value
2023-11-06T00:01:51.797Z,99118.91
2023-11-06T00:04:23.468Z,99118.31
2023-11-06T00:06:53.397Z,99120.03
2023-11-06T00:09:24.967Z,99109.78
2023-11-06T00:11:55.013Z,99104.00
2023-11-06T00:14:25.192Z,99033.59
2023-11-06T00:16:55.365Z,99114.66
2023-11-06T00:19:25.169Z,99118.97
2023-11-06T00:21:55.139Z,99128.59
2023-11-06T00:24:26.708Z,99119.03
2023-11-06T00:26:57.002Z,99132.03
2023-11-06T00:29:26.539Z,99139.59
2023-11-06T00:31:56.560Z,99149.38
2023-11-06T00:34:26.422Z,99156.56
2023-11-06T00:36:56.570Z,99163.06
2023-11-06T00:39:27.418Z,99159.16
2023-11-06T00:41:59.934Z,99177.00
2023-11-06T00:44:29.781Z,99183.03
2023-11-06T00:46:59.610Z,99190.84
2023-11-06T00:49:29.760Z,99122.19
2023-11-06T00:51:59.496Z,99196.44
2023-11-06T00:54:30.335Z,99189.25
2023-11-06T00:57:01.803Z,99178.13
2023-11-06T00:59:31.514Z,99195.09
2023-11-06T01:02:01.268Z,99192.78
2023-11-06T01:04:30.968Z,99205.25
2023-11-06T01:07:00.972Z,99207.25
2023-11-06T01:09:33.889Z,99208.38
2023-11-06T01:12:03.851Z,99208.59
2023-11-06T01:14:33.415Z,99206.31
2023-11-06T01:17:02.857Z,99207.94
2023-11-06T01:19:35.019Z,99214.00
2023-11-06T01:22:06.478Z,99201.63
2023-11-06T01:24:38.237Z,99213.69
2023-11-06T01:27:08.677Z,99207.13
2023-11-06T01:29:40.921Z,99218.13
2023-11-06T01:32:10.682Z,99224.59
2023-11-06T01:34:40.376Z,99227.00
2023-11-06T01:37:10.226Z,99226.91
2023-11-06T01:39:41.588Z,99229.06
2023-11-06T01:42:14.503Z,99236.13
2023-11-06T01:44:44.153Z,99250.53
2023-11-06T01:47:18.003Z,99251.59
2023-11-06T01:49:48.187Z,99248.38
2023-11-06T01:52:21.587Z,99221.59
2023-11-06T01:54:52.527Z,99253.06
2023-11-06T01:57:22.318Z,99260.09
2023-11-06T01:59:52.260Z,99260.72
2023-11-06T02:02:25.163Z,99252.44
2023-11-06T02:04:56.060Z,99242.84
2023-11-06T02:07:26.264Z,99250.56
2023-11-06T02:09:59.535Z,99267.78
2023-11-06T02:12:29.045Z,99262.91
2023-11-06T02:14:58.854Z,99276.41
2023-11-06T02:17:28.600Z,99252.53
2023-11-06T02:19:58.218Z,99267.88
2023-11-06T02:22:28.079Z,99257.94
2023-11-06T02:25:05.001Z,99281.72
2023-11-06T02:27:38.731Z,99278.59
2023-11-06T02:30:09.527Z,99285.66
2023-11-06T02:32:39.278Z,99233.69
2023-11-06T02:35:09.925Z,99300.63
2023-11-06T02:37:39.725Z,99290.69
2023-11-06T02:40:13.921Z,99282.75
2023-11-06T02:42:43.153Z,99287.44
2023-11-06T02:45:12.014Z,99302.63
2023-11-06T02:47:41.107Z,99308.31
2023-11-06T02:50:12.630Z,99300.72
2023-11-06T02:52:45.510Z,99314.75
2023-11-06T02:55:15.781Z,99256.63
2023-11-06T02:57:47.406Z,99321.50
2023-11-06T03:00:17.050Z,99327.75
2023-11-06T03:02:46.022Z,99285.88
2023-11-06T03:05:16.335Z,99333.56
2023-11-06T03:07:45.302Z,99336.34
2023-11-06T03:10:15.976Z,99288.59
2023-11-06T03:12:47.084Z,99338.84
2023-11-06T03:15:16.631Z,99324.47
2023-11-06T03:17:45.812Z,99351.91
2023-11-06T03:20:15.510Z,99345.09
2023-11-06T03:22:44.979Z,99355.75
2023-11-06T03:25:15.848Z,99255.00
2023-11-06T03:27:45.074Z,99344.44
2023-11-06T03:30:15.377Z,99351.91
2023-11-06T03:32:44.627Z,99348.69
2023-11-06T03:35:14.033Z,99351.91
2023-11-06T03:37:47.460Z,99344.31
2023-11-06T03:40:18.678Z,99352.38
2023-11-06T03:42:49.145Z,99353.38
2023-11-06T03:45:18.344Z,99352.53
2023-11-06T03:47:47.759Z,99365.44
2023-11-06T03:50:17.218Z,99365.09
2023-11-06T03:52:46.716Z,99327.78
2023-11-06T03:55:17.811Z,99366.50
2023-11-06T03:57:47.159Z,99365.66
2023-11-06T04:00:17.390Z,99363.56
2023-11-06T04:02:47.019Z,99372.47
2023-11-06T04:05:17.147Z,99378.41
2023-11-06T04:07:46.894Z,99376.56
2023-11-06T04:10:17.990Z,99382.38
2023-11-06T04:12:47.475Z,99377.34
2023-11-06T04:15:16.954Z,99372.94
2023-11-06T04:17:46.804Z,99373.59
2023-11-06T04:20:16.749Z,99383.75
2023-11-06T04:22:46.107Z,99386.09
2023-11-06T04:25:18.906Z,99390.06
2023-11-06T04:27:48.578Z,99391.50
2023-11-06T04:30:17.721Z,99391.75
2023-11-06T04:32:47.358Z,99386.84
2023-11-06T04:35:17.467Z,99332.94
2023-11-06T04:37:47.511Z,99386.72
2023-11-06T04:40:16.970Z,99388.53
2023-11-06T04:42:48.817Z,99398.63
2023-11-06T04:45:19.043Z,99402.34
2023-11-06T04:47:49.221Z,99409.03
2023-11-06T04:50:33.651Z,99405.25
2023-11-06T04:53:06.591Z,99384.72
2023-11-06T04:55:35.918Z,99328.28
2023-11-06T04:58:06.917Z,99411.88
2023-11-06T05:00:36.223Z,99421.59
2023-11-06T05:03:05.602Z,99417.41
2023-11-06T05:05:35.388Z,99385.63
2023-11-06T05:08:05.074Z,99410.31
2023-11-06T05:10:34.348Z,99446.94
2023-11-06T05:13:04.065Z,99425.31
2023-11-06T05:15:37.883Z,99420.56
2023-11-06T05:18:07.615Z,99405.53
2023-11-06T05:20:37.287Z,99419.50
2023-11-06T05:23:07.243Z,99426.19
2023-11-06T05:25:37.119Z,99427.84
2023-11-06T05:28:06.718Z,99408.06
2023-11-06T05:30:37.191Z,99445.41
2023-11-06T05:33:06.952Z,99455.31
2023-11-06T05:35:37.272Z,99445.69
2023-11-06T05:38:06.541Z,99446.88
2023-11-06T05:40:38.450Z,99437.34
2023-11-06T05:43:07.583Z,99454.94
2023-11-06T05:45:37.806Z,99456.44
2023-11-06T05:48:07.025Z,99462.44
2023-11-06T05:50:37.456Z,99459.41
2023-11-06T05:53:07.402Z,99463.84
2023-11-06T05:55:37.549Z,99464.84
2023-11-06T05:58:06.985Z,99471.06
2023-11-06T06:00:37.609Z,99487.56
2023-11-06T06:03:07.119Z,99477.34
2023-11-06T06:05:36.686Z,99477.63
2023-11-06T06:08:12.713Z,99479.66
2023-11-06T06:10:47.375Z,99485.47
2023-11-06T06:13:16.910Z,99398.56
2023-11-06T06:15:48.300Z,99459.88
2023-11-06T06:18:18.327Z,99484.03
2023-11-06T06:20:48.157Z,99486.97
2023-11-06T06:23:18.171Z,99463.38
2023-11-06T06:25:47.529Z,99495.13
2023-11-06T06:28:16.964Z,99487.38
2023-11-06T06:30:47.477Z,99494.75
2023-11-06T06:33:16.512Z,99499.94
2023-11-06T06:35:45.331Z,99497.66
2023-11-06T06:38:14.941Z,99495.41
2023-11-06T06:40:44.309Z,99499.31
2023-11-06T06:43:13.203Z,99494.31
2023-11-06T06:45:42.216Z,99511.16
2023-11-06T06:48:12.797Z,99504.03
2023-11-06T06:50:45.093Z,99503.75
2023-11-06T06:53:14.974Z,99499.75
2023-11-06T06:55:44.331Z,99407.72
2023-11-06T06:58:15.974Z,99500.13
2023-11-06T07:00:45.076Z,99516.94
2023-11-06T07:03:15.687Z,99524.13
2023-11-06T07:05:48.826Z,99526.47
2023-11-06T07:08:18.115Z,99530.25
2023-11-06T07:10:47.598Z,99545.94
2023-11-06T07:13:16.708Z,99542.88
2023-11-06T07:15:45.651Z,99505.44
2023-11-06T07:18:16.173Z,99534.78
2023-11-06T07:20:45.377Z,99548.59
2023-11-06T07:23:14.661Z,99539.25
2023-11-06T07:25:46.862Z,99567.88
2023-11-06T07:28:17.622Z,99560.94
2023-11-06T07:30:47.011Z,99570.47
2023-11-06T07:33:18.011Z,99568.53
2023-11-06T07:35:56.442Z,99565.38
2023-11-06T07:38:25.438Z,99572.88
2023-11-06T07:40:54.333Z,99562.22
2023-11-06T07:43:23.560Z,99527.94
2023-11-06T07:45:52.826Z,99582.63
2023-11-06T07:48:23.362Z,99551.75
2023-11-06T07:50:52.581Z,99572.22
2023-11-06T07:53:21.819Z,99573.53
2023-11-06T07:55:50.859Z,99479.78
2023-11-06T07:58:19.820Z,99576.13
2023-11-06T08:00:50.904Z,99561.13
2023-11-06T08:03:22.660Z,99567.53
2023-11-06T08:05:52.328Z,99587.97
2023-11-06T08:08:22.131Z,99581.03
2023-11-06T08:10:51.211Z,99587.78
2023-11-06T08:13:20.373Z,99596.06
2023-11-06T08:15:49.765Z,99579.66
2023-11-06T08:18:19.085Z,99594.47
2023-11-06T08:20:49.946Z,99596.31
2023-11-06T08:23:19.442Z,99594.09
2023-11-06T08:25:48.532Z,99595.94
2023-11-06T08:28:17.405Z,99592.06
2023-11-06T08:30:46.708Z,99570.72
2023-11-06T08:33:15.829Z,99580.56
2023-11-06T08:35:44.743Z,99581.75
2023-11-06T08:38:17.663Z,99596.97
2023-11-06T08:40:48.653Z,99602.88
2023-11-06T08:43:20.160Z,99602.41
2023-11-06T08:45:49.552Z,99595.47
2023-11-06T08:48:19.354Z,99612.81
2023-11-06T08:50:50.673Z,99603.53
2023-11-06T08:53:21.447Z,99612.03
2023-11-06T08:55:50.826Z,99554.69
2023-11-06T08:58:20.397Z,99606.59
2023-11-06T09:00:49.761Z,99587.38
2023-11-06T09:03:19.226Z,99612.97
2023-11-06T09:05:48.170Z,99615.00
2023-11-06T09:08:17.433Z,99618.28
2023-11-06T09:10:47.709Z,99619.09
2023-11-06T09:13:17.575Z,99629.81
2023-11-06T09:15:47.770Z,99627.78
2023-11-06T09:18:20.699Z,99636.59
2023-11-06T09:20:50.266Z,99640.75
2023-11-06T09:23:22.576Z,99645.13
2023-11-06T09:25:53.482Z,99650.63
2023-11-06T09:28:22.416Z,99653.53
2023-11-06T09:30:52.657Z,99643.50
2023-11-06T09:33:22.019Z,99651.66
2023-11-06T09:35:51.200Z,99653.50
2023-11-06T09:38:20.191Z,99654.91
2023-11-06T09:40:49.345Z,99671.78
2023-11-06T09:43:20.117Z,99671.88
2023-11-06T09:45:49.995Z,99680.41
2023-11-06T09:48:21.353Z,99680.31
2023-11-06T09:50:51.721Z,99684.09
2023-11-06T09:53:24.339Z,99685.66
2023-11-06T09:55:55.417Z,99690.94
2023-11-06T09:58:26.113Z,99694.16
2023-11-06T10:00:55.756Z,99702.47
2023-11-06T10:03:27.971Z,99704.81
2023-11-06T10:05:59.079Z,99716.47
2023-11-06T10:08:32.562Z,99730.19
2023-11-06T10:11:03.140Z,99721.41
2023-11-06T10:13:34.308Z,99736.97
2023-11-06T10:16:18.703Z,99720.09
2023-11-06T10:18:47.945Z,99729.28
2023-11-06T10:21:29.200Z,99732.47
2023-11-06T10:24:01.804Z,99739.38
2023-11-06T10:26:34.303Z,99730.84
2023-11-06T10:29:12.590Z,99737.75
2023-11-06T10:31:42.706Z,99728.34
2023-11-06T10:34:27.337Z,99735.25
2023-11-06T10:37:08.213Z,99713.31
2023-11-06T10:39:37.348Z,99748.13
2023-11-06T10:42:07.868Z,99690.97
2023-11-06T10:44:39.743Z,99742.50
2023-11-06T10:47:10.671Z,99769.19
2023-11-06T10:49:45.391Z,99751.75
2023-11-06T10:52:14.936Z,99757.47
2023-11-06T10:54:44.536Z,99703.59
2023-11-06T10:57:17.507Z,99749.88
2023-11-06T10:59:52.456Z,99759.38
2023-11-06T11:02:38.716Z,99765.59
2023-11-06T11:05:12.880Z,99764.03
2023-11-06T11:07:42.414Z,99767.84
2023-11-06T11:10:13.679Z,99759.63
2023-11-06T11:12:43.259Z,99758.28
2023-11-06T11:15:14.752Z,99766.59
2023-11-06T11:17:58.493Z,99789.78
2023-11-06T11:20:28.048Z,99778.69
2023-11-06T11:23:08.063Z,99768.41
2023-11-06T11:25:56.139Z,99701.44
2023-11-06T11:28:29.189Z,99781.88
2023-11-06T11:31:37.606Z,99790.41
2023-11-06T11:34:15.662Z,99779.13
2023-11-06T11:36:53.848Z,99793.84
2023-11-06T11:39:23.691Z,99762.88
2023-11-06T11:42:25.370Z,99802.31
2023-11-06T11:44:59.341Z,99806.03
2023-11-06T11:47:56.980Z,99788.13
2023-11-06T11:50:43.941Z,99793.78
2023-11-06T11:53:34.220Z,99797.94
2023-11-06T11:56:03.849Z,99794.22
2023-11-06T11:58:44.533Z,99805.31
2023-11-06T12:01:13.837Z,99756.06
2023-11-06T12:03:44.333Z,99795.41
2023-11-06T12:06:13.820Z,99721.88
2023-11-06T12:08:42.819Z,99802.38
2023-11-06T12:11:12.887Z,99805.47
2023-11-06T12:13:41.993Z,99816.50
2023-11-06T12:16:13.638Z,99804.34
2023-11-06T12:18:46.222Z,99819.94
2023-11-06T12:21:17.019Z,99827.34
2023-11-06T12:23:48.697Z,99833.63
2023-11-06T12:26:18.593Z,99829.41
2023-11-06T12:28:50.144Z,99823.03
2023-11-06T12:31:21.831Z,99817.28
2023-11-06T12:33:52.273Z,99815.59
2023-11-06T12:36:27.894Z,99818.63
2023-11-06T12:38:56.968Z,99826.38
2023-11-06T12:41:29.954Z,99827.16
2023-11-06T12:44:02.145Z,99839.81
2023-11-06T12:47:01.039Z,99837.63
2023-11-06T12:49:49.744Z,99850.84
2023-11-06T12:52:22.884Z,99842.06
2023-11-06T12:54:52.488Z,99837.72
2023-11-06T12:57:21.646Z,99834.38
2023-11-06T12:59:50.651Z,99837.78
2023-11-06T13:02:20.464Z,99838.91
2023-11-06T13:04:50.886Z,99826.13
2023-11-06T13:07:20.331Z,99838.13
2023-11-06T13:09:49.774Z,99830.63
2023-11-06T13:12:19.390Z,99835.56
2023-11-06T13:14:49.668Z,99841.75
2023-11-06T13:17:19.975Z,99845.25
2023-11-06T13:19:50.315Z,99829.47
2023-11-06T13:22:19.762Z,99848.84
2023-11-06T13:24:51.316Z,99839.84
2023-11-06T13:27:20.087Z,99853.69
2023-11-06T13:29:49.255Z,99850.09
2023-11-06T13:32:18.468Z,99863.97
2023-11-06T13:34:48.154Z,99873.13
2023-11-06T13:37:20.030Z,99853.13
2023-11-06T13:39:50.755Z,99849.31
2023-11-06T13:42:21.147Z,99852.94
2023-11-06T13:44:50.356Z,99852.72
2023-11-06T13:47:19.297Z,99859.81
2023-11-06T13:49:51.104Z,99859.88
2023-11-06T13:52:28.584Z,99867.00
2023-11-06T13:54:58.038Z,99877.66
2023-11-06T13:57:29.032Z,99856.38
2023-11-06T13:59:58.463Z,99870.81
2023-11-06T14:02:27.814Z,99876.13
2023-11-06T14:04:59.337Z,99866.50
2023-11-06T14:07:29.568Z,99883.53
2023-11-06T14:09:58.484Z,99878.28
2023-11-06T14:12:27.332Z,99877.50
2023-11-06T14:14:57.269Z,99878.53
2023-11-06T14:17:29.175Z,99885.81
2023-11-06T14:19:59.004Z,99880.72
2023-11-06T14:22:29.272Z,99801.78
2023-11-06T14:24:58.732Z,99888.41
2023-11-06T14:27:29.553Z,99883.53
2023-11-06T14:30:02.631Z,99897.19
2023-11-06T14:32:32.001Z,99887.69
2023-11-06T14:35:01.949Z,99880.78
2023-11-06T14:37:35.381Z,99891.28
2023-11-06T14:40:06.638Z,99898.25
2023-11-06T14:42:36.079Z,99898.13
2023-11-06T14:45:06.003Z,99899.53
2023-11-06T14:47:35.423Z,99912.13
2023-11-06T14:50:07.827Z,99902.84
2023-11-06T14:52:40.993Z,99913.88
2023-11-06T14:55:13.613Z,99909.66
2023-11-06T14:57:43.403Z,99911.28
2023-11-06T15:00:16.888Z,99913.69
2023-11-06T15:02:46.891Z,99915.84
2023-11-06T15:05:17.995Z,99918.28
2023-11-06T15:07:51.368Z,99916.97
2023-11-06T15:10:20.052Z,99914.22
2023-11-06T15:12:51.734Z,99922.91
2023-11-06T15:15:22.757Z,99928.63
2023-11-06T15:17:54.094Z,99929.38
2023-11-06T15:20:25.279Z,99928.50
2023-11-06T15:22:56.495Z,99929.09
2023-11-06T15:25:27.392Z,99936.78
2023-11-06T15:27:57.945Z,99933.84
2023-11-06T15:30:30.751Z,99928.78
2023-11-06T15:33:00.316Z,99937.44
2023-11-06T15:35:29.724Z,99944.06
2023-11-06T15:38:00.815Z,99939.91
2023-11-06T15:40:31.949Z,99945.63
2023-11-06T15:43:00.835Z,99944.91
2023-11-06T15:45:32.952Z,99953.84
2023-11-06T15:48:03.406Z,99955.38
2023-11-06T15:50:36.528Z,99954.72
2023-11-06T15:53:13.234Z,99965.34
2023-11-06T15:55:46.265Z,99967.88
2023-11-06T15:58:16.318Z,99964.06
2023-11-06T16:00:45.606Z,99970.94
2023-11-06T16:03:17.642Z,99961.47
2023-11-06T16:05:47.267Z,99973.25
2023-11-06T16:08:21.483Z,99975.97
2023-11-06T16:10:50.624Z,99975.78
2023-11-06T16:13:22.363Z,99978.47
2023-11-06T16:15:51.920Z,99981.16
2023-11-06T16:18:21.835Z,99984.88
2023-11-06T16:20:53.439Z,99987.88
2023-11-06T16:23:23.993Z,99983.50
2023-11-06T16:25:53.817Z,99990.34
2023-11-06T16:28:22.788Z,99989.63
2023-11-06T16:30:51.597Z,99983.94
2023-11-06T16:33:20.961Z,99987.59
2023-11-06T16:35:53.486Z,99991.50
2023-11-06T16:38:23.815Z,99995.94
2023-11-06T16:40:55.696Z,99997.81
2023-11-06T16:43:25.238Z,99989.63
2023-11-06T16:45:54.465Z,99996.69
2023-11-06T16:48:24.423Z,100007.72
2023-11-06T16:50:54.626Z,100017.50
2023-11-06T16:53:25.246Z,100027.81
2023-11-06T16:55:56.295Z,100014.72
2023-11-06T16:58:25.944Z,100022.59
2023-11-06T17:00:55.482Z,100033.38
2023-11-06T17:03:26.183Z,100035.25
2023-11-06T17:05:58.070Z,100036.63
2023-11-06T17:08:28.455Z,100041.84
2023-11-06T17:10:57.553Z,100038.75
2023-11-06T17:13:26.648Z,100046.56
2023-11-06T17:15:56.292Z,99960.09
2023-11-06T17:18:26.367Z,99960.19
2023-11-06T17:20:55.625Z,100052.59
2023-11-06T17:23:24.543Z,100064.31
2023-11-06T17:25:55.198Z,100057.19
2023-11-06T17:28:27.963Z,100066.75
2023-11-06T17:30:57.664Z,100058.78
2023-11-06T17:33:26.732Z,100069.91
2023-11-06T17:36:01.499Z,100067.84
2023-11-06T17:38:30.625Z,100072.56
2023-11-06T17:41:01.336Z,100075.84
2023-11-06T17:43:33.185Z,100075.88
2023-11-06T17:46:02.714Z,100081.38
2023-11-06T17:48:32.869Z,100078.66
2023-11-06T17:51:02.593Z,100079.44
2023-11-06T17:53:32.024Z,100090.03
2023-11-06T17:56:02.654Z,100100.34
2023-11-06T17:58:32.022Z,100097.28
2023-11-06T18:01:04.889Z,100098.16
2023-11-06T18:03:38.873Z,100100.75
2023-11-06T18:06:10.010Z,100106.19
2023-11-06T18:08:42.426Z,100096.94
2023-11-06T18:11:13.636Z,100102.44
2023-11-06T18:13:45.087Z,100106.25
2023-11-06T18:16:20.558Z,100097.00
2023-11-06T18:18:50.038Z,100114.03
2023-11-06T18:21:19.270Z,100120.44
2023-11-06T18:23:49.146Z,100114.09
2023-11-06T18:26:20.624Z,100122.75
2023-11-06T18:28:49.594Z,100129.97
2023-11-06T18:31:25.902Z,100133.25
2023-11-06T18:33:56.040Z,100048.16
2023-11-06T18:36:26.543Z,100159.41
2023-11-06T18:38:56.269Z,100140.88
2023-11-06T18:41:29.419Z,100157.66
2023-11-06T18:43:59.012Z,100160.94
2023-11-06T18:46:28.516Z,100158.16
2023-11-06T18:49:00.573Z,100115.13
2023-11-06T18:51:34.367Z,100122.97
2023-11-06T18:54:03.822Z,100172.84
2023-11-06T18:56:35.479Z,100165.88
2023-11-06T18:59:05.938Z,100162.91
2023-11-06T19:01:36.723Z,100173.25
2023-11-06T19:04:07.283Z,100171.84
2023-11-06T19:06:36.439Z,100172.13
2023-11-06T19:09:08.132Z,100178.50
2023-11-06T19:11:39.370Z,100170.47
2023-11-06T19:14:09.091Z,100183.31
2023-11-06T19:16:38.339Z,100187.00
2023-11-06T19:19:07.666Z,100190.84
2023-11-06T19:21:42.070Z,100194.28
2023-11-06T19:24:20.541Z,100204.53
2023-11-06T19:26:51.940Z,100207.94
2023-11-06T19:29:22.933Z,100187.59
2023-11-06T19:31:54.442Z,100201.00
2023-11-06T19:34:26.334Z,100194.22
2023-11-06T19:36:55.797Z,100203.41
2023-11-06T19:39:25.105Z,100198.75
2023-11-06T19:41:56.501Z,100204.97
2023-11-06T19:44:26.024Z,100192.69
2023-11-06T19:46:55.395Z,100179.34
2023-11-06T19:49:25.107Z,100207.53
2023-11-06T19:51:54.851Z,100202.16
2023-11-06T19:54:24.423Z,100213.66
2023-11-06T19:56:55.208Z,100214.38
2023-11-06T19:59:38.627Z,100204.69
2023-11-06T20:02:16.705Z,100207.72
2023-11-06T20:04:48.277Z,100215.41
2023-11-06T20:07:17.898Z,100216.41
2023-11-06T20:09:47.258Z,100220.09
2023-11-06T20:12:17.868Z,100229.63
2023-11-06T20:14:47.065Z,100238.56
2023-11-06T20:17:21.583Z,100237.09
2023-11-06T20:19:54.747Z,100247.09
2023-11-06T20:22:24.348Z,100244.06
2023-11-06T20:24:53.724Z,100245.53
2023-11-06T20:27:24.441Z,100252.09
2023-11-06T20:29:54.529Z,100248.72
2023-11-06T20:32:25.463Z,100247.81
2023-11-06T20:34:54.978Z,100234.13
2023-11-06T20:37:26.371Z,100259.41
2023-11-06T20:39:55.637Z,100255.22
2023-11-06T20:42:25.979Z,100254.00
2023-11-06T20:44:57.562Z,100237.72
2023-11-06T20:47:27.656Z,100250.41
2023-11-06T20:49:57.604Z,100248.09
2023-11-06T20:52:26.960Z,100248.44
2023-11-06T20:54:56.654Z,100255.75
2023-11-06T20:57:27.692Z,100262.50
2023-11-06T20:59:57.150Z,100270.88
2023-11-06T21:02:27.235Z,100262.41
2023-11-06T21:04:57.545Z,100190.69
2023-11-06T21:07:27.354Z,100280.69
2023-11-06T21:09:57.924Z,100294.63
2023-11-06T21:12:28.613Z,100293.19
2023-11-06T21:14:57.878Z,100285.94
2023-11-06T21:17:27.565Z,100289.00
2023-11-06T21:19:57.002Z,100288.09
2023-11-06T21:22:28.839Z,100289.84
2023-11-06T21:24:59.614Z,100288.94
2023-11-06T21:27:32.935Z,100289.88
2023-11-06T21:30:02.591Z,100290.25
2023-11-06T21:32:31.879Z,100298.03
2023-11-06T21:35:01.790Z,100282.84
2023-11-06T21:37:31.091Z,100288.78
2023-11-06T21:40:02.249Z,100282.97
2023-11-06T21:42:33.615Z,100280.44
2023-11-06T21:45:03.340Z,100277.84
2023-11-06T21:47:33.041Z,100270.47
2023-11-06T21:50:02.844Z,100276.34
2023-11-06T21:52:32.243Z,100283.28
2023-11-06T21:55:01.998Z,100277.69
2023-11-06T21:57:32.825Z,100283.03
2023-11-06T22:00:06.642Z,100285.25
2023-11-06T22:02:43.946Z,100273.50
2023-11-06T22:05:21.786Z,100273.44
2023-11-06T22:07:52.041Z,100295.34
2023-11-06T22:10:25.430Z,100303.75
2023-11-06T22:12:56.647Z,100295.97
2023-11-06T22:15:26.184Z,100302.16
2023-11-06T22:17:59.755Z,100218.47
2023-11-06T22:20:31.612Z,100299.84
2023-11-06T22:23:02.320Z,100313.88
2023-11-06T22:25:31.858Z,100308.66
2023-11-06T22:28:02.633Z,100238.69
2023-11-06T22:30:32.540Z,100291.91
2023-11-06T22:33:01.856Z,100234.72
2023-11-06T22:35:32.023Z,100307.34
2023-11-06T22:38:01.815Z,100306.72
2023-11-06T22:40:31.588Z,100310.47
2023-11-06T22:43:02.674Z,100312.41
2023-11-06T22:45:35.380Z,100321.97
2023-11-06T22:48:06.914Z,100203.66
2023-11-06T22:50:36.795Z,100272.56
2023-11-06T22:53:10.542Z,100324.75
2023-11-06T22:55:40.166Z,100316.41
2023-11-06T22:58:11.325Z,100335.06
2023-11-06T23:00:43.876Z,100336.59
2023-11-06T23:03:14.908Z,100338.91
2023-11-06T23:05:47.096Z,100337.66
2023-11-06T23:08:17.560Z,100337.41
2023-11-06T23:10:47.584Z,100335.59
2023-11-06T23:13:20.748Z,100327.03
2023-11-06T23:15:50.579Z,100339.00
2023-11-06T23:18:22.451Z,100355.91
2023-11-06T23:20:54.311Z,100353.78
2023-11-06T23:23:25.593Z,100356.53
2023-11-06T23:25:57.095Z,100297.72
2023-11-06T23:28:31.776Z,100358.94
2023-11-06T23:31:03.238Z,100371.63
2023-11-06T23:33:33.612Z,100371.56
2023-11-06T23:36:04.369Z,100374.25
2023-11-06T23:38:34.793Z,100373.13
2023-11-06T23:41:04.962Z,100369.06
2023-11-06T23:43:36.655Z,100373.47
2023-11-06T23:46:08.399Z,100376.19
2023-11-06T23:48:39.739Z,100383.72
2023-11-06T23:51:12.399Z,100384.66
2023-11-06T23:53:42.610Z,100381.78
2023-11-06T23:56:13.253Z,100387.91
2023-11-06T23:58:47.236Z,100379.38
